Time;durP1;ratioP1;P1;durP2;ratioP2;P2;SDS_P1;SDS_P2;PMS_P1;PMS_P2;Temp;Humidity;BMP_temperature;BMP_pressure;BME280_temperature;BME280_humidity;BME280_pressure;Samples;Min_cycle;Max_cycle;Signal;HPM_P1;HPM_P2
2023/08/02 00:00:38;;;;;;;11.43;9.68;;;;;;;21.13;67.44;92283.41;5009045;28;20221;-74
2023/08/02 00:03:04;;;;;;;10.60;9.90;;;;;;;21.10;67.69;92284.13;5010014;28;20213;-75
2023/08/02 00:05:30;;;;;;;12.02;11.00;;;;;;;21.02;68.84;92276.34;5007156;28;20254;-75
2023/08/02 00:07:56;;;;;;;11.02;10.23;;;;;;;21.13;68.17;92286.06;5009814;28;20193;-75
2023/08/02 00:10:21;;;;;;;10.00;9.35;;;;;;;21.06;69.19;92277.97;5009149;28;20222;-74
2023/08/02 00:12:52;;;;;;;11.45;10.65;;;;;;;20.97;69.38;92276.63;4997735;28;20236;-75
2023/08/02 00:15:19;;;;;;;11.85;11.05;;;;;;;20.91;69.73;92283.31;5000573;28;20195;-77
2023/08/02 00:17:44;;;;;;;10.82;10.05;;;;;;;20.79;70.49;92281.56;4993249;28;20239;-74
2023/08/02 00:20:10;;;;;;;11.68;10.77;;;;;;;20.76;70.67;92284.16;5012077;28;20250;-75
2023/08/02 00:22:35;;;;;;;12.60;11.48;;;;;;;20.73;71.00;92286.38;5011972;28;20199;-72
2023/08/02 00:25:01;;;;;;;10.90;10.18;;;;;;;20.66;72.68;92296.06;5013263;28;20217;-73
2023/08/02 00:27:27;;;;;;;11.70;10.80;;;;;;;20.57;71.73;92271.63;5013528;28;20249;-74
2023/08/02 00:29:52;;;;;;;11.25;10.55;;;;;;;20.67;71.76;92282.47;5013670;28;20188;-73
2023/08/02 00:32:18;;;;;;;11.65;10.85;;;;;;;20.68;71.65;92278.69;5027488;28;20259;-73
2023/08/02 00:34:44;;;;;;;12.73;11.63;;;;;;;20.83;71.13;92278.97;5010753;28;20198;-73
2023/08/02 00:37:09;;;;;;;11.73;10.73;;;;;;;20.66;72.22;92282.81;5028243;28;20914;-74
2023/08/02 00:39:34;;;;;;;11.30;10.50;;;;;;;20.44;72.92;92286.91;5013327;28;20268;-73
2023/08/02 00:42:00;;;;;;;11.57;10.73;;;;;;;20.55;72.56;92282.59;5012246;28;20229;-74
2023/08/02 00:44:25;;;;;;;11.73;10.57;;;;;;;20.66;72.22;92291.53;5012358;28;20194;-72
2023/08/02 00:46:50;;;;;;;11.52;10.45;;;;;;;20.65;71.96;92295.28;5005432;28;20290;-73
2023/08/02 00:49:16;;;;;;;10.90;10.20;;;;;;;20.66;71.25;92291.53;5011092;28;20204;-73
2023/08/02 00:51:42;;;;;;;11.00;10.20;;;;;;;20.60;71.74;92292.94;5011458;28;20252;-72
2023/08/02 00:54:07;;;;;;;11.90;11.00;;;;;;;20.51;71.78;92286.28;5013008;28;20186;-73
2023/08/02 00:56:33;;;;;;;11.13;10.32;;;;;;;20.63;71.95;92275.53;5012419;28;20220;-73
2023/08/02 00:58:58;;;;;;;12.02;10.85;;;;;;;20.52;73.76;92285.16;5024063;28;20233;-73
2023/08/02 01:01:25;;;;;;;11.60;10.70;;;;;;;20.64;73.29;92280.50;5010202;28;20256;-71
2023/08/02 01:03:51;;;;;;;11.13;10.32;;;;;;;20.55;72.47;92287.91;5011228;28;20193;-73
2023/08/02 01:06:32;;;;;;;12.65;11.68;;;;;;;20.49;73.16;92291.94;5012157;28;20279;-73
2023/08/02 01:09:03;;;;;;;11.93;11.02;;;;;;;20.39;73.10;92302.28;5010565;28;20198;-73
2023/08/02 01:11:40;;;;;;;12.35;11.40;;;;;;;20.45;72.90;92285.03;5002750;28;20220;-73
2023/08/02 01:14:07;;;;;;;11.27;10.32;;;;;;;20.37;73.25;92276.13;5012373;28;20822;-73
2023/08/02 01:16:34;;;;;;;13.40;12.40;;;;;;;20.34;73.60;92279.47;5010921;28;20228;-73
2023/08/02 01:19:00;;;;;;;12.13;11.23;;;;;;;20.25;73.51;92276.25;5010955;28;20223;-73
2023/08/02 01:21:26;;;;;;;11.98;11.18;;;;;;;20.20;74.32;92275.75;5007686;28;20231;-73
2023/08/02 01:23:51;;;;;;;11.48;10.77;;;;;;;20.17;74.75;92281.75;5004705;28;20221;-73
2023/08/02 01:26:19;;;;;;;12.73;11.63;;;;;;;20.21;75.00;92275.41;5010821;28;20265;-71
2023/08/02 01:28:49;;;;;;;12.25;11.45;;;;;;;20.18;74.78;92270.81;5011451;28;20202;-73
2023/08/02 01:31:15;;;;;;;11.55;10.65;;;;;;;20.12;74.10;92274.03;5005832;28;20224;-72
2023/08/02 01:33:53;;;;;;;12.18;11.27;;;;;;;20.01;74.36;92270.38;5005158;28;20229;-73
2023/08/02 01:36:19;;;;;;;11.65;10.65;;;;;;;19.86;76.19;92271.16;5011015;28;20228;-73
2023/08/02 01:38:45;;;;;;;12.30;11.30;;;;;;;20.01;75.04;92276.44;5027461;28;20209;-72
2023/08/02 01:41:10;;;;;;;12.93;11.93;;;;;;;20.01;74.57;92273.78;5005690;28;20224;-73
2023/08/02 01:43:35;;;;;;;12.80;11.75;;;;;;;19.88;74.78;92256.44;5012991;28;20179;-74
2023/08/02 01:46:01;;;;;;;11.88;11.00;;;;;;;19.94;74.81;92270.97;5004039;28;20223;-73
2023/08/02 01:48:26;;;;;;;12.73;11.63;;;;;;;19.83;75.54;92272.59;5011957;28;20290;-73
2023/08/02 01:50:52;;;;;;;11.47;10.67;;;;;;;19.85;75.54;92259.78;5002448;28;20238;-74
2023/08/02 01:53:18;;;;;;;11.63;10.80;;;;;;;19.83;76.46;92255.94;5010836;28;20196;-73
2023/08/02 01:55:43;;;;;;;12.30;11.40;;;;;;;19.96;75.26;92268.75;5011370;28;20243;-73
2023/08/02 01:58:09;;;;;;;12.70;11.70;;;;;;;19.85;75.53;92273.03;5011262;28;20211;-71
2023/08/02 02:00:34;;;;;;;12.18;11.27;;;;;;;19.79;74.90;92258.50;5011372;28;20235;-73
2023/08/02 02:03:00;;;;;;;12.93;11.80;;;;;;;19.83;74.53;92259.34;4999796;28;20187;-72
2023/08/02 02:05:25;;;;;;;11.77;10.77;;;;;;;19.81;74.71;92256.28;4993465;28;20274;-72
2023/08/02 02:07:51;;;;;;;12.43;11.03;;;;;;;19.76;74.91;92263.72;5009936;28;20217;-71
2023/08/02 02:10:16;;;;;;;12.45;11.45;;;;;;;19.82;74.33;92271.06;5010961;28;20182;-72
2023/08/02 02:12:42;;;;;;;12.93;12.10;;;;;;;19.71;75.73;92259.44;5008328;28;20183;-72
2023/08/02 02:15:07;;;;;;;12.13;11.33;;;;;;;19.84;75.43;92268.84;5011211;28;20201;-72
2023/08/02 02:17:33;;;;;;;12.95;11.88;;;;;;;19.80;75.32;92260.03;5011495;28;20186;-71
2023/08/02 02:19:58;;;;;;;12.67;11.73;;;;;;;19.83;75.77;92269.19;5011410;28;20202;-72
2023/08/02 02:22:24;;;;;;;13.18;12.13;;;;;;;19.73;76.77;92278.41;5009319;28;21006;-73
2023/08/02 02:24:49;;;;;;;12.33;11.43;;;;;;;19.82;76.77;92272.94;5011420;28;20283;-72
2023/08/02 02:27:15;;;;;;;12.87;11.97;;;;;;;19.82;76.12;92279.00;5009715;28;20229;-71
2023/08/02 02:29:40;;;;;;;12.90;12.00;;;;;;;19.71;75.62;92262.09;5011094;28;20882;-71
2023/08/02 02:32:06;;;;;;;13.20;12.30;;;;;;;19.70;76.51;92281.75;5010708;28;20892;-71
2023/08/02 02:34:31;;;;;;;13.83;12.53;;;;;;;19.63;77.04;92276.28;5010772;28;20194;-71
2023/08/02 02:36:56;;;;;;;12.50;11.50;;;;;;;19.76;76.41;92285.69;5010640;28;20222;-70
2023/08/02 02:39:23;;;;;;;12.52;11.40;;;;;;;19.79;76.27;92295.59;5010894;28;20218;-70
2023/08/02 02:41:49;;;;;;;13.70;12.50;;;;;;;19.74;76.05;92272.00;5025669;28;20330;-71
2023/08/02 02:44:14;;;;;;;13.67;12.57;;;;;;;19.74;75.93;92281.81;5010679;28;20182;-71
2023/08/02 02:46:40;;;;;;;13.07;11.83;;;;;;;19.90;75.37;92286.03;5010521;28;20285;-70
2023/08/02 02:49:05;;;;;;;13.23;12.33;;;;;;;19.88;76.70;92276.84;5010527;28;20184;-70
2023/08/02 02:51:30;;;;;;;13.10;12.07;;;;;;;19.93;76.24;92295.16;5010037;28;20234;-71
2023/08/02 02:53:56;;;;;;;13.07;11.93;;;;;;;19.95;76.58;92288.41;5010490;28;20182;-70
2023/08/02 02:56:21;;;;;;;13.25;12.00;;;;;;;19.89;76.45;92295.06;5010484;28;20231;-71
2023/08/02 02:58:46;;;;;;;13.13;12.13;;;;;;;19.86;77.44;92301.06;5010335;28;20221;-71
2023/08/02 03:01:12;;;;;;;12.90;11.97;;;;;;;19.72;77.80;92305.25;5010171;28;20238;-71
2023/08/02 03:03:37;;;;;;;13.00;12.03;;;;;;;19.81;77.67;92309.28;5010683;28;20896;-71
2023/08/02 03:06:03;;;;;;;12.52;11.63;;;;;;;19.73;77.90;92307.56;5009142;28;20230;-70
2023/08/02 03:08:28;;;;;;;14.00;12.55;;;;;;;19.78;77.63;92309.94;5025922;28;20205;-70
2023/08/02 03:10:54;;;;;;;12.23;11.13;;;;;;;19.79;77.26;92306.19;5010040;28;20342;-70
2023/08/02 03:13:19;;;;;;;12.90;11.90;;;;;;;19.39;78.17;92316.16;5002567;28;20189;-71
2023/08/02 03:15:45;;;;;;;12.93;11.83;;;;;;;19.47;79.72;92312.56;5009747;28;20255;-70
2023/08/02 03:18:11;;;;;;;13.87;12.60;;;;;;;19.62;78.42;92311.81;5006877;28;20250;-70
2023/08/02 03:20:40;;;;;;;13.37;12.33;;;;;;;19.69;78.24;92319.94;5017280;28;20236;-71
2023/08/02 03:23:05;;;;;;;13.83;12.63;;;;;;;19.54;78.86;92302.16;5010479;28;20191;-71
2023/08/02 03:25:31;;;;;;;13.90;12.73;;;;;;;19.65;79.11;92320.94;5009930;28;20977;-71
2023/08/02 03:27:56;;;;;;;13.00;12.00;;;;;;;19.74;78.65;92313.59;5002971;28;20179;-71
2023/08/02 03:30:22;;;;;;;13.47;12.40;;;;;;;19.84;78.66;92316.53;4987208;28;20235;-70
2023/08/02 03:32:47;;;;;;;16.17;13.10;;;;;;;19.86;78.14;92311.66;4976323;28;20258;-73
2023/08/02 03:35:13;;;;;;;12.93;12.03;;;;;;;19.83;78.38;92316.88;4992074;28;20195;-73
2023/08/02 03:37:38;;;;;;;14.20;13.13;;;;;;;19.82;78.63;92312.69;5009770;28;20280;-73
2023/08/02 03:40:04;;;;;;;14.73;13.33;;;;;;;19.86;78.04;92316.94;5007139;28;20202;-73
2023/08/02 03:42:29;;;;;;;14.13;12.80;;;;;;;19.80;78.77;92315.66;5010043;28;20185;-73
2023/08/02 03:44:55;;;;;;;13.50;12.07;;;;;;;19.83;78.52;92320.28;5007205;28;20194;-72
2023/08/02 03:47:20;;;;;;;12.18;11.18;;;;;;;19.84;77.86;92323.72;5009164;28;20850;-73
2023/08/02 03:49:45;;;;;;;12.73;11.63;;;;;;;19.58;77.11;92286.38;5008232;28;20264;-74
2023/08/02 03:52:11;;;;;;;13.03;12.03;;;;;;;19.88;77.00;92325.34;5002948;28;20298;-73
2023/08/02 03:54:36;;;;;;;13.23;12.23;;;;;;;19.98;74.80;92324.84;5009217;28;20199;-73
2023/08/02 03:57:02;;;;;;;12.17;11.27;;;;;;;20.17;75.99;92322.25;5003723;28;20249;-72
2023/08/02 03:59:27;;;;;;;12.13;11.13;;;;;;;20.29;75.96;92326.72;5010205;28;20249;-72
2023/08/02 04:01:52;;;;;;;12.88;11.88;;;;;;;20.38;75.57;92328.06;4997153;28;20222;-73
2023/08/02 04:04:18;;;;;;;13.33;12.33;;;;;;;20.55;76.26;92327.69;5010151;28;20189;-73
2023/08/02 04:06:44;;;;;;;12.68;11.68;;;;;;;20.55;75.46;92326.91;5008925;28;20294;-72
2023/08/02 04:09:09;;;;;;;13.40;12.02;;;;;;;20.56;75.59;92326.56;5009889;28;20187;-73
2023/08/02 04:11:35;;;;;;;13.63;12.40;;;;;;;20.56;75.83;92315.94;5006977;28;20231;-72
2023/08/02 04:14:00;;;;;;;13.85;12.50;;;;;;;20.70;76.19;92324.22;4992041;28;20219;-72
2023/08/02 04:16:25;;;;;;;13.73;12.38;;;;;;;20.73;77.02;92322.00;4995059;28;20242;-73
2023/08/02 04:18:51;;;;;;;14.27;12.50;;;;;;;20.70;77.41;92328.78;5010080;28;20246;-73
2023/08/02 04:21:19;;;;;;;12.98;11.77;;;;;;;20.84;76.58;92320.34;4999788;28;20238;-73
2023/08/02 04:23:47;;;;;;;12.82;11.50;;;;;;;21.08;75.39;92333.34;5009980;28;20192;-73
2023/08/02 04:26:13;;;;;;;13.20;12.10;;;;;;;21.16;74.86;92324.41;5007411;28;20227;-72
2023/08/02 04:28:39;;;;;;;14.13;12.85;;;;;;;21.08;76.80;92328.81;5009796;28;20198;-73
2023/08/02 04:31:04;;;;;;;13.38;12.18;;;;;;;21.14;76.19;92318.69;5008735;28;20231;-73
2023/08/02 04:33:29;;;;;;;13.70;12.38;;;;;;;21.38;76.11;92331.69;5020650;28;20245;-72
2023/08/02 04:35:58;;;;;;;16.65;13.00;;;;;;;21.40;76.56;92324.13;5007001;28;20247;-73
2023/08/02 04:38:23;;;;;;;13.35;12.13;;;;;;;21.44;77.45;92324.97;5004055;28;20212;-73
2023/08/02 04:40:49;;;;;;;15.10;13.50;;;;;;;21.35;77.82;92316.44;5008602;28;20249;-73
2023/08/02 04:43:14;;;;;;;13.88;12.50;;;;;;;21.19;77.73;92291.84;5004007;28;20184;-73
2023/08/02 04:45:39;;;;;;;14.23;12.75;;;;;;;21.51;76.17;92331.16;5008730;28;20220;-68
2023/08/02 04:48:05;;;;;;;15.48;12.95;;;;;;;21.54;75.53;92327.06;5019470;28;20209;-66
2023/08/02 04:50:33;;;;;;;14.65;13.27;;;;;;;21.59;75.46;92324.09;5000285;28;20233;-67
2023/08/02 04:52:59;;;;;;;13.95;12.60;;;;;;;21.78;72.88;92324.09;4999986;28;20194;-67
2023/08/02 04:55:24;;;;;;;15.20;11.68;;;;;;;21.60;76.41;92322.97;5001913;28;20246;-67
2023/08/02 04:57:49;;;;;;;15.00;12.60;;;;;;;21.81;73.53;92334.00;4993774;28;20260;-67
2023/08/02 05:00:15;;;;;;;13.80;12.43;;;;;;;21.90;72.49;92337.97;5001970;28;20198;-67
2023/08/02 05:02:40;;;;;;;15.02;11.80;;;;;;;21.78;76.66;92329.41;5008838;28;20222;-72
2023/08/02 05:05:06;;;;;;;14.20;12.93;;;;;;;21.27;73.69;92336.78;5009059;28;20176;-70
2023/08/02 05:07:33;;;;;;;13.68;12.23;;;;;;;21.49;72.89;92343.28;5011447;28;20258;-71
2023/08/02 05:10:03;;;;;;;13.70;12.45;;;;;;;21.50;75.70;92334.16;5010685;28;20200;-68
2023/08/02 05:12:29;;;;;;;14.43;13.15;;;;;;;21.30;76.28;92343.28;4990453;28;20299;-69
2023/08/02 05:14:57;;;;;;;13.93;12.57;;;;;;;21.84;71.65;92333.28;4991199;28;20203;-72
2023/08/02 05:17:22;;;;;;;14.70;13.40;;;;;;;21.77;72.87;92346.47;5009857;28;20213;-70
2023/08/02 05:19:47;;;;;;;15.43;13.73;;;;;;;21.54;73.44;92340.34;5010622;28;20206;-70
2023/08/02 05:22:13;;;;;;;14.00;12.32;;;;;;;22.00;72.78;92341.94;4993546;28;20240;-67
2023/08/02 05:24:38;;;;;;;15.77;14.13;;;;;;;22.32;70.46;92359.16;4991392;28;20198;-68
2023/08/02 05:27:04;;;;;;;15.32;13.57;;;;;;;22.03;70.84;92351.84;4991882;28;20252;-72
2023/08/02 05:29:29;;;;;;;14.77;13.48;;;;;;;22.29;70.25;92359.88;4991753;28;20205;-67
2023/08/02 05:31:55;;;;;;;14.45;13.10;;;;;;;21.64;72.97;92366.31;4991433;28;20236;-67
2023/08/02 05:34:20;;;;;;;17.67;14.15;;;;;;;21.90;72.91;92364.56;4992305;28;20230;-67
2023/08/02 05:36:45;;;;;;;15.73;13.38;;;;;;;22.27;70.63;92362.91;4991732;28;20257;-66
2023/08/02 05:39:11;;;;;;;17.60;14.05;;;;;;;21.98;74.65;92360.13;4990947;28;20229;-70
2023/08/02 05:41:36;;;;;;;16.17;14.63;;;;;;;22.34;70.29;92372.09;4990749;28;20302;-69
2023/08/02 05:44:01;;;;;;;14.52;13.20;;;;;;;22.63;68.54;92380.19;4989855;28;20194;-66
2023/08/02 05:46:29;;;;;;;15.25;13.88;;;;;;;22.91;67.76;92388.59;5002826;28;20798;-66
2023/08/02 05:48:55;;;;;;;15.52;14.02;;;;;;;22.91;67.29;92385.94;5011684;28;20222;-66
2023/08/02 05:51:21;;;;;;;15.10;13.60;;;;;;;23.11;65.28;92384.72;5011103;28;20226;-68
2023/08/02 05:53:46;;;;;;;17.17;15.43;;;;;;;23.20;65.64;92395.09;5011250;28;20181;-69
2023/08/02 05:56:12;;;;;;;15.65;14.15;;;;;;;23.60;65.65;92401.34;4999353;28;20249;-75
2023/08/02 05:58:37;;;;;;;16.80;15.00;;;;;;;25.30;58.58;92412.41;4986054;28;20213;-74
2023/08/02 06:01:02;;;;;;;18.23;14.10;;;;;;;28.08;49.78;92421.41;4991848;28;20519;-73
2023/08/02 06:03:28;;;;;;;14.57;13.40;;;;;;;30.32;44.39;92423.34;4991997;28;20196;-74
2023/08/02 06:05:53;;;;;;;15.68;13.95;;;;;;;29.10;45.33;92420.78;4998748;28;20235;-75
2023/08/02 06:08:18;;;;;;;16.70;13.20;;;;;;;26.91;51.17;92411.34;5011265;28;20227;-74
2023/08/02 06:10:44;;;;;;;14.43;12.90;;;;;;;27.14;51.16;92417.06;5004693;28;20256;-75
2023/08/02 06:13:09;;;;;;;16.23;14.35;;;;;;;29.33;44.72;92418.25;5007974;28;20255;-75
2023/08/02 06:15:34;;;;;;;14.48;13.18;;;;;;;28.60;47.24;92423.06;5001274;28;20216;-74
2023/08/02 06:18:00;;;;;;;14.93;13.07;;;;;;;29.74;44.42;92417.06;5006065;28;20207;-74
2023/08/02 06:20:25;;;;;;;13.88;12.65;;;;;;;30.71;41.85;92427.00;5009978;28;20259;-72
2023/08/02 06:22:51;;;;;;;15.25;13.68;;;;;;;32.16;37.98;92428.00;5008283;28;20180;-73
2023/08/02 06:25:16;;;;;;;14.95;13.40;;;;;;;32.68;37.24;92435.03;5000146;28;20194;-72
2023/08/02 06:27:41;;;;;;;13.40;11.93;;;;;;;33.94;34.13;92439.31;5010314;28;20207;-72
2023/08/02 06:30:08;;;;;;;13.80;12.40;;;;;;;37.08;30.38;92447.63;5010855;28;20176;-73
2023/08/02 06:32:33;;;;;;;12.82;11.73;;;;;;;37.19;29.19;92447.22;5007322;28;20215;-72
2023/08/02 06:34:58;;;;;;;14.65;11.73;;;;;;;37.32;28.77;92447.13;5011348;28;20266;-73
2023/08/02 06:37:24;;;;;;;14.30;11.88;;;;;;;34.75;32.44;92431.59;5010543;28;20207;-73
2023/08/02 06:39:49;;;;;;;18.48;13.57;;;;;;;31.16;39.25;92419.41;5006275;28;20267;-72
2023/08/02 06:42:15;;;;;;;14.05;12.73;;;;;;;30.42;40.50;92408.94;5010355;28;20227;-74
2023/08/02 06:44:40;;;;;;;14.85;13.43;;;;;;;28.81;45.23;92414.09;5002371;28;20230;-74
2023/08/02 06:47:05;;;;;;;15.05;13.57;;;;;;;27.12;49.05;92404.06;4993658;28;20277;-74
2023/08/02 06:49:34;;;;;;;15.18;13.85;;;;;;;26.49;52.81;92404.06;5000083;28;20230;-73
2023/08/02 06:51:59;;;;;;;15.52;14.20;;;;;;;26.65;52.95;92391.84;5010566;28;20282;-73
2023/08/02 06:54:25;;;;;;;20.38;14.93;;;;;;;26.43;54.46;92392.16;5010866;28;20187;-73
2023/08/02 06:56:50;;;;;;;16.60;15.25;;;;;;;26.86;52.08;92399.13;5009169;28;20219;-72
2023/08/02 06:59:15;;;;;;;16.58;15.18;;;;;;;27.23;50.42;92399.44;5003433;28;20208;-72
2023/08/02 07:01:41;;;;;;;16.27;14.48;;;;;;;27.06;52.32;92396.78;5009149;28;20232;-72
2023/08/02 07:04:07;;;;;;;22.52;14.88;;;;;;;26.51;52.51;92396.38;5018849;28;20195;-72
2023/08/02 07:06:32;;;;;;;15.63;14.13;;;;;;;27.23;50.27;92393.31;5001314;28;20224;-72
2023/08/02 07:08:57;;;;;;;16.27;14.77;;;;;;;26.86;52.30;92391.06;5010446;28;20258;-71
2023/08/02 07:11:23;;;;;;;17.60;15.80;;;;;;;26.61;52.80;92396.41;5007565;28;20874;-72
2023/08/02 07:13:48;;;;;;;16.20;14.70;;;;;;;26.59;53.86;92403.28;4991370;28;20184;-72
2023/08/02 07:16:14;;;;;;;16.73;15.10;;;;;;;25.97;55.69;92405.44;5005815;28;20227;-72
2023/08/02 07:18:39;;;;;;;16.73;15.05;;;;;;;25.87;56.10;92406.19;5010484;28;20857;-72
2023/08/02 07:21:09;;;;;;;15.80;14.32;;;;;;;26.29;54.60;92411.66;5010071;28;20231;-72
2023/08/02 07:23:35;;;;;;;19.65;15.15;;;;;;;25.36;57.56;92405.56;5003604;28;20251;-72
2023/08/02 07:26:02;;;;;;;17.17;15.57;;;;;;;25.32;58.59;92407.44;5004071;28;20231;-72
2023/08/02 07:28:27;;;;;;;17.05;15.27;;;;;;;25.66;57.48;92410.69;5010035;28;20987;-72
2023/08/02 07:30:53;;;;;;;16.02;14.10;;;;;;;26.24;55.69;92414.72;5006942;28;20230;-72
2023/08/02 07:33:18;;;;;;;16.13;14.63;;;;;;;26.40;54.28;92412.44;5000023;28;20233;-72
2023/08/02 07:35:46;;;;;;;16.48;14.75;;;;;;;26.29;54.19;92414.34;5009822;28;20314;-72
2023/08/02 07:38:13;;;;;;;18.17;15.85;;;;;;;26.28;54.13;92415.50;5003640;28;20300;-73
2023/08/02 07:40:38;;;;;;;19.08;16.27;;;;;;;26.02;55.83;92405.13;5005771;28;20238;-71
2023/08/02 07:43:04;;;;;;;16.38;14.98;;;;;;;25.99;56.06;92403.22;5010050;28;20267;-72
2023/08/02 07:45:29;;;;;;;16.95;15.05;;;;;;;25.58;56.25;92406.44;5008792;28;20238;-73
2023/08/02 07:47:54;;;;;;;16.58;14.98;;;;;;;25.26;58.20;92408.94;4999781;28;20179;-71
2023/08/02 07:50:20;;;;;;;21.55;15.68;;;;;;;26.13;55.30;92413.91;5005673;28;20306;-71
2023/08/02 07:52:45;;;;;;;18.70;15.02;;;;;;;25.73;55.80;92408.81;5010225;28;20184;-72
2023/08/02 07:55:11;;;;;;;16.77;15.00;;;;;;;26.43;55.35;92403.66;5007882;28;20202;-72
2023/08/02 07:57:36;;;;;;;16.65;14.23;;;;;;;26.37;55.47;92412.44;5009935;28;20195;-72
2023/08/02 08:00:02;;;;;;;15.88;14.48;;;;;;;26.28;55.17;92401.34;5008818;28;20191;-72
2023/08/02 08:02:28;;;;;;;16.00;14.38;;;;;;;26.74;53.15;92413.66;5008777;28;20175;-72
2023/08/02 08:04:56;;;;;;;16.08;14.60;;;;;;;26.81;54.29;92409.44;4993502;28;20219;-72
2023/08/02 08:07:21;;;;;;;18.95;13.82;;;;;;;26.77;54.85;92410.19;4996264;28;20231;-73
2023/08/02 08:09:49;;;;;;;16.05;14.30;;;;;;;26.87;55.67;92413.25;5004828;28;20210;-72
2023/08/02 08:12:15;;;;;;;15.80;13.88;;;;;;;27.16;53.88;92404.06;5002742;28;20242;-73
2023/08/02 08:14:41;;;;;;;17.13;14.18;;;;;;;27.32;52.82;92399.06;5007406;28;20247;-73
2023/08/02 08:17:07;;;;;;;16.70;14.10;;;;;;;26.90;52.79;92412.50;4998270;28;20262;-72
2023/08/02 08:19:35;;;;;;;15.60;14.00;;;;;;;27.06;52.17;92405.59;5009416;28;20203;-72
2023/08/02 08:22:00;;;;;;;14.52;13.23;;;;;;;27.10;52.32;92411.72;5001591;28;20218;-73
2023/08/02 08:24:26;;;;;;;15.10;13.60;;;;;;;27.55;51.04;92407.44;5004816;28;20247;-72
2023/08/02 08:26:55;;;;;;;13.95;12.75;;;;;;;27.57;50.53;92415.84;5006465;28;20820;-73
2023/08/02 08:29:20;;;;;;;13.07;12.07;;;;;;;27.17;49.96;92406.34;5008446;28;20222;-72
2023/08/02 08:31:46;;;;;;;13.48;12.38;;;;;;;27.53;49.80;92413.19;5001093;28;20240;-72
2023/08/02 08:34:13;;;;;;;13.10;12.07;;;;;;;27.64;48.25;92413.16;5008340;28;20218;-72
2023/08/02 08:36:38;;;;;;;14.10;12.88;;;;;;;27.46;49.75;92412.44;5000248;28;20236;-72
2023/08/02 08:39:04;;;;;;;13.23;12.13;;;;;;;28.00;49.80;92409.97;5005963;28;20208;-72
2023/08/02 08:41:29;;;;;;;13.73;12.63;;;;;;;28.22;46.29;92407.91;4995445;28;20216;-73
2023/08/02 08:43:55;;;;;;;12.40;11.10;;;;;;;28.19;44.88;92401.44;5008120;28;21025;-72
2023/08/02 08:46:22;;;;;;;12.00;11.02;;;;;;;28.15;44.79;92411.44;5002752;28;20237;-72
2023/08/02 08:48:47;;;;;;;12.48;11.43;;;;;;;27.95;45.42;92407.69;5012880;28;20191;-71
2023/08/02 08:51:13;;;;;;;13.23;12.02;;;;;;;27.85;46.90;92413.06;5012964;28;20215;-73
2023/08/02 08:53:44;;;;;;;14.00;12.63;;;;;;;27.52;47.01;92408.22;5011821;28;20301;-71
2023/08/02 08:56:10;;;;;;;14.10;12.70;;;;;;;27.43;47.41;92403.25;5011198;28;20289;-70
2023/08/02 08:58:37;;;;;;;13.02;11.98;;;;;;;27.85;46.85;92405.78;5012690;28;20267;-72
2023/08/02 09:01:04;;;;;;;12.70;11.50;;;;;;;27.86;46.47;92410.00;5003963;28;20236;-73
2023/08/02 09:03:30;;;;;;;13.30;12.02;;;;;;;27.74;45.94;92410.44;5003494;28;20180;-72
2023/08/02 09:06:00;;;;;;;12.85;11.85;;;;;;;27.81;46.34;92410.41;5003703;28;20247;-73
2023/08/02 09:08:25;;;;;;;12.68;11.52;;;;;;;27.78;44.95;92388.97;5010267;28;20198;-73
2023/08/02 09:10:51;;;;;;;12.38;11.38;;;;;;;27.82;45.42;92395.06;5012347;28;20520;-72
2023/08/02 09:13:24;;;;;;;12.60;11.52;;;;;;;27.83;45.58;92367.84;4997717;28;20187;-72
2023/08/02 09:16:10;;;;;;;13.02;11.88;;;;;;;28.27;45.12;92391.41;4999515;28;20224;-72
2023/08/02 09:18:44;;;;;;;12.13;11.05;;;;;;;28.46;43.48;92398.19;5001028;28;20209;-73
2023/08/02 09:21:22;;;;;;;11.25;10.13;;;;;;;28.65;42.60;92390.41;4999257;28;20284;-72
2023/08/02 09:23:55;;;;;;;11.18;10.25;;;;;;;28.71;41.14;92404.19;5012168;28;20990;-73
2023/08/02 09:26:21;;;;;;;11.20;10.20;;;;;;;29.17;40.46;92401.91;5007584;28;20228;-73
2023/08/02 09:29:06;;;;;;;11.32;10.32;;;;;;;29.10;40.52;92401.97;5000236;28;20238;-72
2023/08/02 09:31:34;;;;;;;12.10;10.88;;;;;;;29.09;40.25;92398.50;5011094;28;20223;-71
2023/08/02 09:34:00;;;;;;;12.00;10.85;;;;;;;29.07;39.56;92400.84;5000496;28;20228;-73
2023/08/02 09:36:34;;;;;;;11.10;10.25;;;;;;;29.32;39.54;92396.00;4988665;28;20248;-72
2023/08/02 09:39:09;;;;;;;11.38;10.25;;;;;;;29.32;39.41;92401.38;4992883;28;20309;-73
2023/08/02 09:41:34;;;;;;;11.38;10.48;;;;;;;28.97;37.49;92393.59;4982984;28;20234;-73
2023/08/02 09:44:00;;;;;;;9.48;8.88;;;;;;;29.00;39.52;92394.72;4992390;28;20225;-72
2023/08/02 09:46:36;;;;;;;10.27;9.50;;;;;;;29.00;39.06;92392.81;4987547;28;20227;-73
2023/08/02 09:49:21;;;;;;;10.77;9.88;;;;;;;29.19;38.73;92394.97;4991091;28;20185;-73
2023/08/02 09:51:47;;;;;;;11.07;10.23;;;;;;;29.36;37.73;92407.47;4991042;28;20224;-74
2023/08/02 09:54:14;;;;;;;11.40;9.75;;;;;;;29.05;38.79;92400.44;4980834;28;20283;-73
2023/08/02 09:56:41;;;;;;;11.38;9.88;;;;;;;28.77;39.00;92387.25;4991855;28;20232;-74
2023/08/02 09:59:07;;;;;;;11.48;10.60;;;;;;;28.77;38.61;92399.91;4980473;28;20218;-73
2023/08/02 10:01:34;;;;;;;10.60;9.60;;;;;;;28.53;39.23;92393.56;4987856;28;20231;-72
2023/08/02 10:04:02;;;;;;;10.02;9.27;;;;;;;28.67;39.18;92393.44;4977421;28;20264;-73
2023/08/02 10:06:32;;;;;;;10.55;9.75;;;;;;;28.85;38.48;92398.69;4987336;28;20245;-73
2023/08/02 10:09:07;;;;;;;10.05;9.27;;;;;;;28.95;38.77;92395.16;4985408;28;20183;-73
2023/08/02 10:11:43;;;;;;;11.25;10.43;;;;;;;28.99;38.37;92399.34;4986309;28;20239;-73
2023/08/02 10:14:09;;;;;;;10.48;9.70;;;;;;;29.10;38.33;92394.69;4983802;28;20242;-74
2023/08/02 10:16:37;;;;;;;10.55;9.65;;;;;;;28.67;38.41;92392.72;4991737;28;20219;-76
2023/08/02 10:19:03;;;;;;;10.65;9.85;;;;;;;28.87;39.34;92393.69;4991532;28;20216;-75
2023/08/02 10:21:31;;;;;;;10.52;9.65;;;;;;;29.04;39.01;92388.19;4991445;28;20227;-72
2023/08/02 10:23:58;;;;;;;10.27;9.38;;;;;;;28.89;38.85;92384.06;4991916;28;20195;-70
2023/08/02 10:26:24;;;;;;;12.32;9.77;;;;;;;28.55;39.47;92380.50;4991554;28;20220;-70
2023/08/02 10:28:50;;;;;;;9.80;9.10;;;;;;;28.46;38.76;92382.84;4989246;28;20208;-70
2023/08/02 10:31:17;;;;;;;12.80;10.23;;;;;;;28.76;39.76;92369.59;4987990;28;20229;-70
2023/08/02 10:33:42;;;;;;;11.43;10.63;;;;;;;28.81;39.29;92363.78;4990177;28;20220;-69
2023/08/02 10:36:08;;;;;;;10.00;9.13;;;;;;;28.95;38.63;92377.09;4979133;28;20247;-70
2023/08/02 10:38:39;;;;;;;12.32;11.20;;;;;;;29.07;38.29;92373.19;4991568;28;20214;-69
2023/08/02 10:41:10;;;;;;;10.05;9.35;;;;;;;28.97;37.98;92379.38;4991227;28;20230;-69
2023/08/02 10:43:53;;;;;;;12.50;10.52;;;;;;;29.09;38.85;92370.88;4984147;28;20172;-69
2023/08/02 10:46:27;;;;;;;10.93;10.00;;;;;;;29.34;37.71;92377.50;4991251;28;20242;-69
2023/08/02 10:48:54;;;;;;;9.95;8.98;;;;;;;29.07;37.99;92376.66;4991169;28;20172;-69
2023/08/02 10:51:38;;;;;;;10.40;9.70;;;;;;;29.10;37.75;92378.53;4991088;28;20249;-69
2023/08/02 10:54:22;;;;;;;10.70;9.75;;;;;;;29.04;37.48;92382.78;4974767;28;20192;-69
2023/08/02 10:56:54;;;;;;;11.02;10.13;;;;;;;29.07;37.82;92379.34;4985695;28;20234;-69
2023/08/02 10:59:22;;;;;;;10.50;9.60;;;;;;;29.15;37.36;92386.16;4991427;28;20278;-69
2023/08/02 11:02:00;;;;;;;11.15;10.35;;;;;;;29.38;37.23;92380.94;4990550;28;20250;-69
2023/08/02 11:04:27;;;;;;;11.15;10.05;;;;;;;29.62;37.64;92382.59;4980757;28;20255;-69
2023/08/02 11:06:53;;;;;;;11.13;10.32;;;;;;;29.16;39.15;92382.31;4988363;28;20258;-69
2023/08/02 11:09:29;;;;;;;10.18;9.20;;;;;;;29.42;39.09;92387.03;4991201;28;20192;-69
2023/08/02 11:11:54;;;;;;;10.10;9.40;;;;;;;28.93;38.32;92387.50;4990476;28;20238;-69
2023/08/02 11:14:27;;;;;;;9.75;9.05;;;;;;;29.03;39.69;92377.81;4991022;28;20192;-69
2023/08/02 11:16:53;;;;;;;10.95;9.35;;;;;;;28.85;39.53;92383.34;4984321;28;20258;-69